createdAt,value
2022-12-09T00:02:31.085Z,96020.97
2022-12-09T00:07:52.322Z,96014.69
2022-12-09T00:13:13.562Z,96014.06
2022-12-09T00:18:35.364Z,96020.53
2022-12-09T00:23:57.763Z,96015.84
2022-12-09T00:29:18.499Z,96016.19
2022-12-09T00:34:39.211Z,96014.00
2022-12-09T00:40:02.401Z,96008.88
2022-12-09T00:45:23.010Z,96007.28
2022-12-09T00:50:45.671Z,96010.78
2022-12-09T00:56:07.060Z,96015.91
2022-12-09T01:01:29.138Z,96026.16
2022-12-09T01:06:51.002Z,96026.25
2022-12-09T01:12:11.707Z,96036.84
2022-12-09T01:17:32.613Z,96044.75
2022-12-09T01:22:53.733Z,96043.78
2022-12-09T01:28:14.610Z,96035.22
2022-12-09T01:33:35.610Z,96044.50
2022-12-09T01:38:58.891Z,96033.00
2022-12-09T01:44:27.282Z,96020.06
2022-12-09T01:49:48.353Z,96017.38
2022-12-09T01:55:10.299Z,96010.59
2022-12-09T02:00:31.414Z,96006.06
2022-12-09T02:05:53.420Z,95999.97
2022-12-09T02:11:23.047Z,96000.88
2022-12-09T02:17:06.151Z,95989.16
2022-12-09T02:22:41.122Z,95987.03
2022-12-09T02:28:25.352Z,95982.63
2022-12-09T02:34:17.635Z,95984.75
2022-12-09T02:39:55.067Z,95976.50
2022-12-09T02:45:21.608Z,95977.41
2022-12-09T02:50:49.612Z,95976.44
2022-12-09T02:56:14.314Z,95976.69
2022-12-09T03:01:50.021Z,95967.22
2022-12-09T03:07:26.940Z,95960.75
2022-12-09T03:12:56.325Z,95954.69
2022-12-09T03:18:21.474Z,95954.50
2022-12-09T03:23:46.276Z,95959.22
2022-12-09T03:29:12.779Z,95955.53
2022-12-09T03:34:38.838Z,95951.31
2022-12-09T03:40:01.337Z,95943.63
2022-12-09T03:45:24.861Z,95934.69
2022-12-09T03:51:10.127Z,95927.41
2022-12-09T03:56:41.310Z,95924.00
2022-12-09T04:02:05.108Z,95920.94
2022-12-09T04:07:26.719Z,95925.06
2022-12-09T04:12:48.256Z,95923.13
2022-12-09T04:18:09.696Z,95922.59
2022-12-09T04:23:30.517Z,95914.16
2022-12-09T04:28:51.483Z,95908.91
2022-12-09T04:34:12.228Z,95907.19
2022-12-09T04:39:33.077Z,95917.22
2022-12-09T04:44:53.814Z,95907.59
2022-12-09T04:50:15.210Z,95896.31
2022-12-09T04:55:36.340Z,95910.28
2022-12-09T05:00:58.142Z,95898.25
2022-12-09T05:06:20.787Z,95887.06
2022-12-09T05:11:42.143Z,95887.38
2022-12-09T05:17:04.577Z,95885.13
2022-12-09T05:22:25.528Z,95881.22
2022-12-09T05:27:46.628Z,95869.81
2022-12-09T05:33:08.395Z,95880.50
2022-12-09T05:38:30.616Z,95884.41
2022-12-09T05:43:52.107Z,95885.94
2022-12-09T05:49:12.973Z,95893.97
2022-12-09T05:54:34.581Z,95895.28
2022-12-09T05:59:55.314Z,95893.75
2022-12-09T06:05:16.331Z,95881.22
2022-12-09T06:10:41.363Z,95883.47
2022-12-09T06:16:04.397Z,95876.44
2022-12-09T06:21:26.125Z,95875.88
2022-12-09T06:26:47.111Z,95887.97
2022-12-09T06:32:08.448Z,95879.50
2022-12-09T06:37:29.835Z,95884.63
2022-12-09T06:42:51.383Z,95877.94
2022-12-09T06:48:12.661Z,95860.34
2022-12-09T06:53:34.212Z,95863.56
2022-12-09T06:58:54.962Z,95861.72
2022-12-09T07:04:15.840Z,95857.19
2022-12-09T07:09:37.023Z,95860.06
2022-12-09T07:14:58.242Z,95872.47
2022-12-09T07:20:19.533Z,95862.03
2022-12-09T07:25:40.745Z,95857.59
2022-12-09T07:31:02.496Z,95854.22
2022-12-09T07:36:25.277Z,95852.88
2022-12-09T07:41:48.593Z,95852.13
2022-12-09T07:47:10.001Z,95855.69
2022-12-09T07:52:31.314Z,95856.31
2022-12-09T07:57:52.228Z,95857.69
2022-12-09T08:03:13.948Z,95859.09
2022-12-09T08:08:35.067Z,95868.88
2022-12-09T08:13:58.429Z,95858.69
2022-12-09T08:19:19.504Z,95862.00
2022-12-09T08:24:40.900Z,95855.47
2022-12-09T08:30:01.931Z,95860.09
2022-12-09T08:35:23.706Z,95860.34
2022-12-09T08:40:45.024Z,95862.38
2022-12-09T08:46:06.432Z,95854.88
2022-12-09T08:51:29.777Z,95856.31
2022-12-09T08:56:53.638Z,95860.72
2022-12-09T09:02:14.773Z,95861.34
2022-12-09T09:07:37.246Z,95844.56
2022-12-09T09:12:58.338Z,95858.03
2022-12-09T09:18:19.678Z,95852.00
2022-12-09T09:23:40.888Z,95852.09
2022-12-09T09:29:01.551Z,95841.44
2022-12-09T09:34:23.115Z,95816.69
2022-12-09T09:39:44.765Z,95804.03
2022-12-09T09:45:14.730Z,95797.31
2022-12-09T09:50:59.101Z,95787.59
2022-12-09T09:56:20.023Z,95776.59
2022-12-09T10:01:44.104Z,95756.78
2022-12-09T10:07:17.965Z,95745.06
2022-12-09T10:13:12.304Z,95724.13
2022-12-09T10:19:15.592Z,95713.81
2022-12-09T10:24:40.720Z,95697.13
2022-12-09T10:30:10.950Z,95709.09
2022-12-09T10:35:33.762Z,95710.03
2022-12-09T10:42:03.782Z,95716.16
2022-12-09T10:47:28.237Z,95712.13
2022-12-09T10:52:50.071Z,95697.41
2022-12-09T10:58:15.753Z,95693.47
2022-12-09T11:03:52.084Z,95697.22
2022-12-09T11:09:25.195Z,95704.00
2022-12-09T11:14:52.521Z,95709.22
2022-12-09T11:20:14.362Z,95694.38
2022-12-09T11:25:37.071Z,95683.13
2022-12-09T11:36:59.102Z,95685.28
2022-12-09T11:42:23.148Z,95681.56
2022-12-09T11:53:34.019Z,95685.72
2022-12-09T11:59:06.617Z,95693.84
2022-12-09T12:04:39.744Z,95694.34
2022-12-09T12:10:02.517Z,95708.41
2022-12-09T12:15:32.371Z,95691.78
2022-12-09T12:21:20.472Z,95686.59
2022-12-09T12:27:02.115Z,95679.69
2022-12-09T12:32:41.026Z,95651.97
2022-12-09T12:38:30.875Z,95632.25
2022-12-09T12:44:37.989Z,95616.38
2022-12-09T12:50:22.841Z,95622.00
2022-12-09T12:55:48.942Z,95617.19
2022-12-09T13:01:30.660Z,95603.28
2022-12-09T13:07:08.159Z,95583.88
2022-12-09T13:12:56.657Z,95593.72
2022-12-09T13:18:23.592Z,95584.81
2022-12-09T13:24:13.623Z,95580.88
2022-12-09T13:29:40.220Z,95564.94
2022-12-09T13:35:13.651Z,95564.94
2022-12-09T13:40:39.052Z,95572.16
2022-12-09T13:46:01.131Z,95569.25
2022-12-09T13:51:23.274Z,95576.94
2022-12-09T13:56:47.721Z,95576.72
2022-12-09T14:02:24.979Z,95569.94
2022-12-09T14:08:21.982Z,95546.09
2022-12-09T14:13:42.867Z,95547.03
2022-12-09T14:19:45.079Z,95544.09
2022-12-09T14:25:28.396Z,95540.41
2022-12-09T14:30:54.634Z,95555.88
2022-12-09T14:36:15.574Z,95546.63
2022-12-09T14:42:01.448Z,95549.28
2022-12-09T14:47:31.149Z,95540.19
2022-12-09T14:52:57.618Z,95533.06
2022-12-09T14:58:22.608Z,95537.91
2022-12-09T15:03:59.959Z,95543.78
2022-12-09T15:09:23.436Z,95543.66
2022-12-09T15:14:45.326Z,95540.34
2022-12-09T15:20:07.441Z,95542.84
2022-12-09T15:25:28.905Z,95539.44
2022-12-09T15:31:05.780Z,95538.16
2022-12-09T15:36:32.888Z,95547.16
2022-12-09T15:42:07.360Z,95544.75
2022-12-09T15:47:36.574Z,95525.34
2022-12-09T15:53:01.672Z,95528.34
2022-12-09T15:58:27.326Z,95536.59
2022-12-09T16:03:50.917Z,95520.06
2022-12-09T16:09:18.014Z,95522.50
2022-12-09T16:14:44.286Z,95516.09
2022-12-09T16:20:33.130Z,95524.16
2022-12-09T16:26:04.785Z,95520.22
2022-12-09T16:31:28.306Z,95514.94
2022-12-09T16:36:55.585Z,95524.84
2022-12-09T16:42:30.850Z,95516.34
2022-12-09T16:47:56.108Z,95508.63
2022-12-09T16:53:20.429Z,95505.00
2022-12-09T16:58:41.200Z,95497.66
2022-12-09T17:04:10.494Z,95490.44
2022-12-09T17:09:31.699Z,95490.19
2022-12-09T17:14:54.105Z,95494.53
2022-12-09T17:20:15.038Z,95496.03
2022-12-09T17:25:35.710Z,95495.66
2022-12-09T17:31:00.164Z,95498.56
2022-12-09T17:36:20.935Z,95498.09
2022-12-09T17:41:42.847Z,95511.16
2022-12-09T17:47:04.045Z,95514.78
2022-12-09T17:52:25.064Z,95514.00
2022-12-09T17:57:49.812Z,95507.72
2022-12-09T18:03:22.119Z,95499.25
2022-12-09T18:08:48.706Z,95506.44
2022-12-09T18:14:10.411Z,95510.34
2022-12-09T18:19:31.874Z,95507.38
2022-12-09T18:24:52.469Z,95513.88
2022-12-09T18:30:13.405Z,95527.69
2022-12-09T18:35:34.608Z,95531.13
2022-12-09T18:41:01.218Z,95518.56
2022-12-09T18:46:27.687Z,95519.88
2022-12-09T18:51:50.944Z,95517.25
2022-12-09T18:57:11.575Z,95523.56
2022-12-09T19:02:32.525Z,95521.91
2022-12-09T19:07:53.217Z,95537.31
2022-12-09T19:13:14.089Z,95543.50
2022-12-09T19:18:34.747Z,95536.34
2022-12-09T19:23:56.445Z,95544.84
2022-12-09T19:29:18.289Z,95545.66
2022-12-09T19:34:39.013Z,95553.88
2022-12-09T19:40:00.012Z,95555.88
2022-12-09T19:45:20.726Z,95561.53
2022-12-09T19:50:41.431Z,95567.16
2022-12-09T19:56:04.796Z,95560.72
2022-12-09T20:01:28.823Z,95569.22
2022-12-09T20:06:49.748Z,95569.94
2022-12-09T20:12:10.693Z,95558.88
2022-12-09T20:17:31.573Z,95553.03
2022-12-09T20:22:52.442Z,95547.53
2022-12-09T20:28:13.319Z,95544.19
2022-12-09T20:33:34.790Z,95553.00
2022-12-09T20:38:58.897Z,95557.03
2022-12-09T20:44:20.192Z,95567.41
2022-12-09T20:49:40.742Z,95569.44
2022-12-09T20:55:01.720Z,95575.69
2022-12-09T21:00:23.611Z,95566.56
2022-12-09T21:05:44.681Z,95570.16
2022-12-09T21:11:08.118Z,95572.59
2022-12-09T21:16:32.321Z,95588.19
2022-12-09T21:21:54.490Z,95605.09
2022-12-09T21:27:15.040Z,95592.91
2022-12-09T21:32:35.691Z,95594.28
2022-12-09T21:37:56.496Z,95613.41
2022-12-09T21:43:17.137Z,95603.81
2022-12-09T21:48:38.784Z,95609.75
2022-12-09T21:53:59.749Z,95621.09
2022-12-09T21:59:20.865Z,95633.72
2022-12-09T22:04:41.822Z,95630.97
2022-12-09T22:10:02.579Z,95641.97
2022-12-09T22:15:23.362Z,95635.94
2022-12-09T22:21:22.620Z,95640.84
2022-12-09T22:26:25.841Z,95637.03
2022-12-09T22:31:47.105Z,95635.31
2022-12-09T22:37:35.176Z,95629.94
2022-12-09T22:42:49.595Z,95630.63
2022-12-09T22:48:10.259Z,95624.56
2022-12-09T22:53:31.106Z,95625.75
2022-12-09T22:58:52.083Z,95622.19
2022-12-09T23:04:14.716Z,95629.00
2022-12-09T23:09:35.666Z,95633.94
2022-12-09T23:14:56.537Z,95632.34
2022-12-09T23:20:17.568Z,95627.06
2022-12-09T23:25:38.784Z,95628.47
2022-12-09T23:31:02.070Z,95622.41
2022-12-09T23:36:26.371Z,95623.69
2022-12-09T23:41:48.219Z,95622.78
2022-12-09T23:47:09.074Z,95637.34
2022-12-09T23:52:29.790Z,95639.53
2022-12-09T23:57:50.474Z,95642.88
